Time;durP1;ratioP1;P1;durP2;ratioP2;P2;SDS_P1;SDS_P2;PMS_P1;PMS_P2;Temp;Humidity;BMP_temperature;BMP_pressure;BME280_temperature;BME280_humidity;BME280_pressure;Samples;Min_cycle;Max_cycle;Signal;HPM_P1;HPM_P2
2022/09/05 00:02:03;;;;;;;5.13;3.10;;;16.60;99.90;;;;;;4978667;28;20212;-89
2022/09/05 00:05:02;;;;;;;5.13;3.33;;;16.60;99.90;;;;;;4986987;28;20172;-89
2022/09/05 00:07:58;;;;;;;3.30;3.00;;;16.50;99.90;;;;;;4998133;28;20210;-89
2022/09/05 00:10:47;;;;;;;4.63;3.07;;;16.50;99.90;;;;;;4998076;28;20187;-90
2022/09/05 00:13:28;;;;;;;3.30;3.00;;;16.50;99.90;;;;;;4998497;28;20258;-89
2022/09/05 00:16:02;;;;;;;3.87;3.10;;;16.40;99.90;;;;;;4996391;28;20231;-89
2022/09/05 00:19:09;;;;;;;3.63;3.20;;;16.30;99.90;;;;;;4997261;28;20194;-89
2022/09/05 00:22:02;;;;;;;3.83;2.77;;;16.30;99.90;;;;;;5004089;28;20227;-89
2022/09/05 00:24:52;;;;;;;3.23;2.87;;;16.30;99.90;;;;;;4998090;28;20175;-89
2022/09/05 00:27:25;;;;;;;3.27;2.80;;;16.30;99.90;;;;;;4997631;28;20211;-90
2022/09/05 00:30:17;;;;;;;3.10;2.80;;;16.20;99.90;;;;;;4997265;28;20184;-89
2022/09/05 00:33:07;;;;;;;4.20;2.50;;;16.30;99.90;;;;;;4997778;28;20199;-88
2022/09/05 00:35:50;;;;;;;3.30;2.80;;;16.20;99.90;;;;;;5013620;28;20646;-89
2022/09/05 00:38:23;;;;;;;3.27;2.97;;;16.20;99.90;;;;;;4997036;28;20295;-89
2022/09/05 00:41:01;;;;;;;3.80;2.87;;;16.30;99.90;;;;;;4997086;28;20222;-89
2022/09/05 00:43:28;;;;;;;3.90;2.93;;;16.30;99.90;;;;;;4997525;28;20163;-89
2022/09/05 00:46:09;;;;;;;3.50;3.03;;;16.20;99.90;;;;;;4997022;28;20167;-89
2022/09/05 00:49:22;;;;;;;3.60;3.30;;;16.10;99.90;;;;;;5006346;28;20179;-89
2022/09/05 00:51:51;;;;;;;3.80;3.10;;;16.20;99.90;;;;;;4962408;28;20266;-89
2022/09/05 00:54:23;;;;;;;3.00;2.70;;;16.20;99.90;;;;;;4996707;28;20175;-89
2022/09/05 00:57:03;;;;;;;3.83;3.37;;;16.20;99.90;;;;;;4996695;28;20176;-89
2022/09/05 00:59:57;;;;;;;3.87;3.47;;;16.20;99.90;;;;;;4996270;28;20222;-89
2022/09/05 01:02:29;;;;;;;4.10;3.60;;;16.10;99.90;;;;;;4980550;28;20210;-89
2022/09/05 01:05:33;;;;;;;3.43;3.13;;;16.00;99.90;;;;;;4995269;28;20186;-89
2022/09/05 01:08:17;;;;;;;4.23;3.20;;;16.00;99.90;;;;;;4998453;28;20179;-89
2022/09/05 01:11:05;;;;;;;5.20;3.20;;;16.10;99.90;;;;;;4990266;28;20205;-89
2022/09/05 01:13:58;;;;;;;4.20;3.30;;;16.10;99.90;;;;;;4997116;28;20183;-89
2022/09/05 01:16:30;;;;;;;3.60;3.30;;;16.00;99.90;;;;;;4996403;28;20171;-89
2022/09/05 01:19:21;;;;;;;3.87;3.50;;;15.90;99.90;;;;;;4996601;28;20183;-89
2022/09/05 01:21:52;;;;;;;3.77;3.47;;;15.90;99.90;;;;;;4996944;28;20219;-89
2022/09/05 01:24:37;;;;;;;4.43;3.43;;;15.90;99.90;;;;;;5012948;28;20246;-89
2022/09/05 01:27:30;;;;;;;4.37;3.80;;;15.90;99.90;;;;;;4994320;28;20180;-89
2022/09/05 01:30:22;;;;;;;4.27;3.83;;;15.90;99.90;;;;;;4996694;28;20175;-88
2022/09/05 01:33:08;;;;;;;4.47;3.73;;;15.80;99.90;;;;;;4996216;28;20207;-89
2022/09/05 01:35:40;;;;;;;4.50;3.67;;;15.80;99.90;;;;;;4996483;28;20201;-89
2022/09/05 01:38:14;;;;;;;5.40;3.43;;;15.80;99.90;;;;;;5000658;28;20175;-89
2022/09/05 01:41:01;;;;;;;4.47;3.30;;;15.70;99.90;;;;;;5001992;28;20253;-89
2022/09/05 01:43:33;;;;;;;4.83;3.70;;;15.70;99.90;;;;;;4996583;28;20723;-89
2022/09/05 01:46:27;;;;;;;4.10;3.70;;;15.60;99.90;;;;;;4996585;28;20191;-89
2022/09/05 01:49:11;;;;;;;3.40;3.10;;;15.40;99.90;;;;;;4995945;28;20171;-89
2022/09/05 01:52:14;;;;;;;3.90;3.57;;;15.40;99.90;;;;;;4996036;28;20199;-89
2022/09/05 01:54:52;;;;;;;4.80;3.90;;;15.30;99.90;;;;;;4995904;28;20175;-89
2022/09/05 01:57:45;;;;;;;3.50;3.20;;;15.20;99.90;;;;;;4996039;28;20266;-89
2022/09/05 02:00:16;;;;;;;6.20;3.80;;;15.10;99.90;;;;;;4996065;28;20179;-89
2022/09/05 02:03:00;;;;;;;4.13;3.73;;;15.10;99.90;;;;;;4995508;28;20293;-89
2022/09/05 02:05:32;;;;;;;3.60;3.27;;;15.10;99.90;;;;;;4995302;28;20183;-89
2022/09/05 02:08:05;;;;;;;6.57;3.70;;;15.10;99.90;;;;;;4995718;28;20183;-89
2022/09/05 02:10:49;;;;;;;5.47;3.60;;;15.10;99.90;;;;;;4995717;28;20242;-89
2022/09/05 02:13:32;;;;;;;3.93;3.57;;;15.10;99.90;;;;;;4995968;28;20233;-89
2022/09/05 02:16:03;;;;;;;3.83;3.53;;;15.00;99.90;;;;;;4995893;28;20175;-89
2022/09/05 02:18:35;;;;;;;4.03;3.60;;;15.10;99.90;;;;;;4982615;28;20218;-88
2022/09/05 02:21:08;;;;;;;4.43;3.40;;;15.00;99.90;;;;;;4993131;28;20274;-88
2022/09/05 02:24:13;;;;;;;4.20;3.30;;;15.00;99.90;;;;;;4996220;28;20167;-89
2022/09/05 02:26:49;;;;;;;4.40;3.67;;;15.10;99.90;;;;;;4992728;28;20184;-90
2022/09/05 02:29:20;;;;;;;5.60;4.00;;;15.00;99.90;;;;;;4986481;28;20185;-88
2022/09/05 02:32:00;;;;;;;3.77;3.47;;;15.00;99.90;;;;;;4995804;28;20293;-89
2022/09/05 02:34:52;;;;;;;3.87;3.47;;;14.90;99.90;;;;;;4995520;28;20241;-89
2022/09/05 02:37:34;;;;;;;3.63;3.30;;;14.90;99.90;;;;;;4995549;28;20318;-89
2022/09/05 02:40:09;;;;;;;4.40;4.00;;;14.90;99.90;;;;;;4994988;28;20183;-89
2022/09/05 02:42:54;;;;;;;4.73;3.80;;;14.80;99.90;;;;;;4995426;28;20202;-88
2022/09/05 02:46:02;;;;;;;3.67;3.37;;;14.80;99.90;;;;;;4995067;28;20249;-89
2022/09/05 02:48:43;;;;;;;4.37;3.60;;;14.80;99.90;;;;;;4995829;28;20171;-89
2022/09/05 02:51:15;;;;;;;6.27;3.50;;;14.80;99.90;;;;;;4995758;28;20227;-89
2022/09/05 02:53:51;;;;;;;7.33;3.90;;;14.70;99.90;;;;;;4994025;28;20186;-89
2022/09/05 02:56:40;;;;;;;5.23;3.67;;;14.70;99.90;;;;;;4994782;28;20178;-89
2022/09/05 02:59:48;;;;;;;4.03;3.63;;;14.60;99.90;;;;;;4984714;28;20195;-89
2022/09/05 03:02:36;;;;;;;5.50;4.23;;;14.70;99.90;;;;;;4994683;28;20222;-88
2022/09/05 03:05:20;;;;;;;3.70;3.40;;;14.70;99.90;;;;;;4995173;28;20172;-89
2022/09/05 03:07:58;;;;;;;5.57;3.60;;;14.70;99.90;;;;;;4996335;28;20213;-89
2022/09/05 03:10:46;;;;;;;5.67;3.90;;;14.70;99.90;;;;;;5000902;28;20175;-88
2022/09/05 03:13:50;;;;;;;4.07;3.67;;;14.70;99.90;;;;;;4995537;28;20190;-88
2022/09/05 03:16:35;;;;;;;4.43;3.40;;;14.70;99.90;;;;;;5011576;28;20193;-89
2022/09/05 03:19:32;;;;;;;4.47;3.57;;;14.70;99.90;;;;;;4991669;28;20176;-88
2022/09/05 03:22:30;;;;;;;4.30;3.43;;;14.80;99.90;;;;;;4977007;28;20215;-89
2022/09/05 03:24:56;;;;;;;5.10;3.70;;;14.70;99.90;;;;;;4994359;28;20273;-89
2022/09/05 03:28:02;;;;;;;4.27;3.60;;;14.70;99.90;;;;;;4995658;28;20223;-88
2022/09/05 03:30:37;;;;;;;6.30;3.77;;;14.70;99.90;;;;;;4995269;28;20182;-88
2022/09/05 03:33:25;;;;;;;4.53;4.10;;;14.70;99.90;;;;;;4995608;28;20312;-88
2022/09/05 03:36:24;;;;;;;5.10;4.10;;;14.70;99.90;;;;;;4994962;28;20183;-88
2022/09/05 03:39:02;;;;;;;4.27;3.87;;;14.60;99.90;;;;;;4999189;28;20257;-88
2022/09/05 03:41:48;;;;;;;5.00;3.90;;;14.60;99.90;;;;;;5002253;28;20218;-89
2022/09/05 03:44:59;;;;;;;4.20;3.67;;;14.50;99.90;;;;;;4985316;28;20245;-89
2022/09/05 03:47:52;;;;;;;3.83;3.43;;;14.40;99.90;;;;;;4923257;29;20178;-88
2022/09/05 03:50:18;;;;;;;4.37;3.97;;;14.40;99.90;;;;;;4985287;28;20184;-88
2022/09/05 03:53:21;;;;;;;5.23;3.80;;;14.30;99.90;;;;;;4997106;28;20349;-89
2022/09/05 03:56:26;;;;;;;4.90;4.10;;;14.30;99.90;;;;;;4997342;28;20175;-88
2022/09/05 03:59:03;;;;;;;4.20;3.80;;;14.40;99.90;;;;;;4997603;28;20193;-88
2022/09/05 04:01:47;;;;;;;4.93;4.30;;;14.50;99.90;;;;;;4997811;28;20215;-88
2022/09/05 04:04:28;;;;;;;5.10;4.37;;;14.50;99.90;;;;;;4997389;28;20186;-88
2022/09/05 04:07:00;;;;;;;5.00;4.00;;;14.60;99.90;;;;;;4997678;28;20183;-89
2022/09/05 04:09:53;;;;;;;5.13;3.87;;;14.60;99.90;;;;;;4997674;28;20187;-88
2022/09/05 04:12:33;;;;;;;5.63;4.13;;;14.60;99.90;;;;;;4978681;28;20753;-89
2022/09/05 04:15:19;;;;;;;4.60;4.20;;;14.60;99.90;;;;;;4979372;28;20268;-88
2022/09/05 04:17:56;;;;;;;4.13;3.83;;;14.60;99.90;;;;;;4954426;28;20184;-88
2022/09/05 04:20:41;;;;;;;5.33;4.47;;;14.60;99.90;;;;;;4991099;28;20179;-89
2022/09/05 04:23:23;;;;;;;5.43;4.47;;;14.70;99.90;;;;;;4994865;28;20255;-88
2022/09/05 04:26:04;;;;;;;4.70;3.90;;;14.70;99.90;;;;;;4994322;28;20242;-89
2022/09/05 04:28:36;;;;;;;5.37;3.80;;;14.80;99.90;;;;;;4996159;28;20184;-88
2022/09/05 04:31:37;;;;;;;4.30;3.90;;;14.80;99.90;;;;;;4997591;28;20206;-89
2022/09/05 04:34:15;;;;;;;3.80;3.50;;;14.80;99.90;;;;;;4997587;28;20179;-88
2022/09/05 04:36:44;;;;;;;4.57;3.87;;;14.80;99.90;;;;;;4996164;28;20191;-89
2022/09/05 04:39:19;;;;;;;4.93;3.87;;;14.70;99.90;;;;;;4997201;28;20183;-88
2022/09/05 04:41:53;;;;;;;5.43;3.90;;;14.60;99.90;;;;;;4997558;28;20210;-89
2022/09/05 04:44:29;;;;;;;5.50;3.93;;;14.60;99.90;;;;;;4997736;28;20193;-88
2022/09/05 04:47:18;;;;;;;5.20;3.73;;;14.50;99.90;;;;;;4998239;28;20198;-89
2022/09/05 04:50:04;;;;;;;5.40;3.80;;;14.40;99.90;;;;;;5018762;28;20286;-89
2022/09/05 04:52:41;;;;;;;4.30;3.90;;;14.40;99.90;;;;;;4995671;28;20207;-88
2022/09/05 04:55:25;;;;;;;4.43;3.70;;;14.40;99.90;;;;;;4997413;28;20175;-88
2022/09/05 04:57:53;;;;;;;7.50;3.60;;;14.40;99.90;;;;;;4996236;28;20171;-88
2022/09/05 05:00:31;;;;;;;4.73;3.97;;;14.30;99.90;;;;;;4996727;28;20186;-89
2022/09/05 05:03:02;;;;;;;4.27;3.87;;;14.30;99.90;;;;;;4997267;28;20190;-88
2022/09/05 05:05:55;;;;;;;4.07;3.67;;;14.30;99.90;;;;;;4996759;28;20172;-88
2022/09/05 05:08:34;;;;;;;4.67;4.10;;;14.30;99.90;;;;;;4996967;28;20171;-89
2022/09/05 05:11:10;;;;;;;6.37;4.30;;;14.30;99.90;;;;;;4995503;28;20226;-89
2022/09/05 05:13:47;;;;;;;4.77;4.30;;;14.20;99.90;;;;;;5009560;28;20182;-88
2022/09/05 05:16:24;;;;;;;4.80;4.03;;;14.30;99.90;;;;;;4996531;28;20171;-88
2022/09/05 05:19:05;;;;;;;6.00;4.83;;;14.30;99.90;;;;;;4996578;28;20275;-88
2022/09/05 05:21:32;;;;;;;5.10;4.10;;;14.40;99.90;;;;;;4996297;28;20214;-88
2022/09/05 05:24:14;;;;;;;4.83;4.33;;;14.40;99.90;;;;;;4993521;28;20180;-88
2022/09/05 05:26:47;;;;;;;4.13;3.73;;;14.50;99.90;;;;;;5003345;28;20183;-89
2022/09/05 05:29:25;;;;;;;4.90;4.40;;;14.50;99.90;;;;;;4977591;28;20172;-89
2022/09/05 05:31:55;;;;;;;6.87;4.60;;;14.60;99.90;;;;;;4993392;28;20222;-88
2022/09/05 05:34:29;;;;;;;4.33;3.93;;;14.60;99.90;;;;;;4996798;28;20175;-88
2022/09/05 05:37:15;;;;;;;4.03;3.67;;;14.50;99.90;;;;;;4993110;28;20203;-88
2022/09/05 05:39:47;;;;;;;4.33;3.80;;;14.60;99.90;;;;;;4994345;28;20179;-89
2022/09/05 05:42:25;;;;;;;4.97;4.47;;;14.70;99.90;;;;;;4996976;28;20221;-89
2022/09/05 05:44:54;;;;;;;4.57;4.13;;;14.80;99.90;;;;;;4997842;28;20209;-89
2022/09/05 05:47:52;;;;;;;4.57;4.17;;;14.90;99.90;;;;;;4995887;28;20187;-89
2022/09/05 05:50:56;;;;;;;7.50;4.60;;;15.00;99.90;;;;;;4995891;28;20306;-89
2022/09/05 05:53:44;;;;;;;6.47;4.53;;;15.00;99.90;;;;;;4995490;28;20182;-89
2022/09/05 05:56:32;;;;;;;4.40;4.00;;;15.10;99.90;;;;;;4991359;28;20175;-84
2022/09/05 05:58:57;;;;;;;4.60;4.20;;;15.20;99.90;;;;;;4993427;28;20234;-87
2022/09/05 06:02:08;;;;;;;7.10;4.07;;;15.30;99.90;;;;;;4991855;28;20207;-84
2022/09/05 06:04:49;;;;;;;4.40;4.00;;;15.30;99.90;;;;;;5010679;28;20266;-84
2022/09/05 06:07:46;;;;;;;7.33;4.13;;;15.40;99.90;;;;;;5008005;28;20207;-83
2022/09/05 06:10:51;;;;;;;4.87;4.37;;;15.40;99.90;;;;;;4992942;28;20188;-83
2022/09/05 06:14:03;;;;;;;4.60;4.20;;;15.50;99.90;;;;;;4963546;28;20201;-83
2022/09/05 06:16:50;;;;;;;4.67;4.20;;;15.50;99.90;;;;;;4993956;28;20214;-83
2022/09/05 06:19:41;;;;;;;5.13;4.57;;;15.50;99.90;;;;;;4996838;28;20183;-83
2022/09/05 06:22:43;;;;;;;4.60;4.20;;;15.60;99.90;;;;;;5014893;28;20305;-88
2022/09/05 06:25:43;;;;;;;4.60;4.20;;;15.60;99.90;;;;;;4975816;28;20182;-88
2022/09/05 06:28:31;;;;;;;4.57;4.17;;;15.70;99.90;;;;;;4985602;28;20183;-88
2022/09/05 06:31:35;;;;;;;5.03;4.53;;;15.80;99.90;;;;;;4992858;28;20207;-88
2022/09/05 06:34:07;;;;;;;4.70;4.30;;;15.90;99.90;;;;;;4993084;28;20187;-88
2022/09/05 06:36:42;;;;;;;4.53;4.13;;;16.00;99.90;;;;;;4993381;28;20202;-89
2022/09/05 06:39:50;;;;;;;5.30;4.80;;;16.10;99.90;;;;;;4986948;28;20190;-89
2022/09/05 06:42:45;;;;;;;5.50;4.90;;;16.20;99.90;;;;;;4987504;28;20207;-89
2022/09/05 06:45:31;;;;;;;8.93;4.67;;;16.30;99.90;;;;;;4980448;28;20183;-89
2022/09/05 06:48:08;;;;;;;6.00;4.87;;;16.40;99.90;;;;;;4990771;28;20183;-88
2022/09/05 06:51:11;;;;;;;5.20;4.30;;;16.40;99.90;;;;;;5005031;28;20179;-89
2022/09/05 06:54:03;;;;;;;5.00;4.60;;;16.40;99.90;;;;;;4965670;28;20233;-90
2022/09/05 06:56:46;;;;;;;5.97;5.37;;;16.50;99.90;;;;;;4995462;28;20186;-90
2022/09/05 06:59:39;;;;;;;5.80;5.30;;;16.70;99.90;;;;;;4994901;28;20245;-90
2022/09/05 07:02:12;;;;;;;5.20;4.70;;;16.80;99.90;;;;;;5010334;28;20211;-84
2022/09/05 07:04:42;;;;;;;5.20;4.70;;;16.90;99.90;;;;;;4993339;28;20262;-88
2022/09/05 07:07:22;;;;;;;5.43;5.00;;;17.00;99.90;;;;;;5006899;28;20249;-88
2022/09/05 07:10:12;;;;;;;5.60;5.10;;;17.10;99.90;;;;;;4991089;28;20228;-89
2022/09/05 07:12:49;;;;;;;7.53;5.30;;;17.10;99.90;;;;;;4993636;28;20195;-89
2022/09/05 07:15:33;;;;;;;4.90;4.40;;;17.10;99.90;;;;;;4996793;28;20194;-89
2022/09/05 07:18:07;;;;;;;6.33;4.90;;;17.20;99.90;;;;;;4998877;28;20187;-88
2022/09/05 07:21:03;;;;;;;5.67;4.60;;;17.30;99.90;;;;;;4996815;28;20330;-89
2022/09/05 07:23:47;;;;;;;6.68;4.68;;;17.50;99.90;;;;;;5001965;28;20223;-89
2022/09/05 07:26:19;;;;;;;5.30;4.55;;;17.60;99.90;;;;;;4997716;28;20195;-88
2022/09/05 07:28:52;;;;;;;5.07;4.65;;;17.70;99.90;;;;;;4999355;28;20183;-89
2022/09/05 07:31:27;;;;;;;5.28;4.78;;;17.90;99.90;;;;;;4996184;28;20270;-89
2022/09/05 07:34:27;;;;;;;5.22;4.80;;;18.00;99.90;;;;;;4995779;28;20194;-89
2022/09/05 07:37:06;;;;;;;5.05;4.60;;;18.10;99.90;;;;;;4996269;28;20199;-89
2022/09/05 07:39:40;;;;;;;6.78;4.40;;;18.20;99.90;;;;;;5021601;28;20246;-89
2022/09/05 07:42:14;;;;;;;6.57;4.60;;;18.40;99.90;;;;;;4994680;28;20222;-89
2022/09/05 07:44:55;;;;;;;5.30;4.80;;;18.50;99.90;;;;;;5002766;28;20183;-89
2022/09/05 07:47:24;;;;;;;4.88;4.38;;;18.60;99.90;;;;;;4997365;28;20203;-89
2022/09/05 07:49:51;;;;;;;5.10;4.60;;;18.70;99.90;;;;;;5019881;28;20263;-89
2022/09/05 07:52:20;;;;;;;4.82;4.13;;;18.90;99.90;;;;;;5006429;28;20714;-89
2022/09/05 07:54:51;;;;;;;5.72;4.68;;;19.00;99.90;;;;;;5018819;28;20179;-89
2022/09/05 07:57:21;;;;;;;6.75;4.72;;;19.10;99.90;;;;;;5002869;28;20194;-89
2022/09/05 07:59:57;;;;;;;4.72;4.30;;;19.10;99.90;;;;;;5001198;28;20190;-89
2022/09/05 08:02:23;;;;;;;4.88;4.18;;;19.10;99.90;;;;;;5003761;28;20228;-89
2022/09/05 08:04:49;;;;;;;4.75;4.20;;;19.10;99.90;;;;;;5010322;28;20650;-89
2022/09/05 08:07:19;;;;;;;4.78;4.28;;;19.30;99.90;;;;;;5016214;28;20189;-89
2022/09/05 08:10:02;;;;;;;5.63;4.13;;;19.40;99.90;;;;;;5005414;28;20206;-89
2022/09/05 08:12:42;;;;;;;5.10;4.38;;;19.60;99.90;;;;;;5005858;28;20238;-89
2022/09/05 08:15:26;;;;;;;4.57;4.00;;;19.70;99.90;;;;;;4996947;28;20276;-89
2022/09/05 08:18:10;;;;;;;3.95;3.40;;;19.90;99.90;;;;;;5004086;28;20190;-89
2022/09/05 08:21:03;;;;;;;5.03;4.20;;;20.00;99.90;;;;;;5015477;28;20185;-88
2022/09/05 08:23:50;;;;;;;4.30;3.90;;;20.20;99.90;;;;;;5002155;28;20202;-89
2022/09/05 08:26:29;;;;;;;5.00;3.72;;;20.30;99.90;;;;;;4995810;28;20294;-89
2022/09/05 08:29:25;;;;;;;4.32;3.92;;;20.50;99.90;;;;;;5001531;28;20230;-89
2022/09/05 08:32:00;;;;;;;6.45;3.80;;;20.60;99.90;;;;;;5000179;28;20204;-89
2022/09/05 08:35:01;;;;;;;3.97;3.55;;;20.70;99.90;;;;;;4987085;28;20205;-89
2022/09/05 08:37:30;;;;;;;3.67;3.38;;;20.90;99.90;;;;;;5017512;28;20179;-89
2022/09/05 08:40:04;;;;;;;4.00;3.55;;;21.00;99.90;;;;;;4983348;28;20184;-89
2022/09/05 08:42:59;;;;;;;3.97;3.00;;;21.20;99.90;;;;;;4984840;28;20213;-88
2022/09/05 08:45:39;;;;;;;3.70;3.17;;;21.50;99.90;;;;;;4987526;28;20179;-89
2022/09/05 08:48:14;;;;;;;5.10;3.70;;;21.80;99.90;;;;;;4997675;28;20183;-88
2022/09/05 08:51:12;;;;;;;4.18;3.45;;;21.90;99.90;;;;;;4998059;28;20171;-89
2022/09/05 08:53:59;;;;;;;5.68;3.30;;;22.10;99.90;;;;;;5012944;28;20207;-88
2022/09/05 08:56:37;;;;;;;4.75;3.00;;;22.20;99.90;;;;;;5013684;28;20234;-89
2022/09/05 08:59:22;;;;;;;5.47;3.40;;;22.40;99.90;;;;;;4998983;28;20174;-89
2022/09/05 09:01:48;;;;;;;5.03;3.50;;;22.60;99.90;;;;;;5007836;28;20208;-88
2022/09/05 09:04:27;;;;;;;5.90;3.50;;;22.80;99.90;;;;;;5000585;28;20182;-89
2022/09/05 09:07:06;;;;;;;3.35;3.05;;;22.80;99.90;;;;;;5011500;28;20175;-89
2022/09/05 09:09:45;;;;;;;4.78;2.90;;;22.90;99.90;;;;;;4999118;28;20172;-89
2022/09/05 09:12:27;;;;;;;5.45;3.17;;;23.20;99.90;;;;;;5001425;28;20207;-89
2022/09/05 09:15:10;;;;;;;3.60;3.22;;;23.30;99.90;;;;;;5002138;28;20187;-89
2022/09/05 09:17:40;;;;;;;4.43;2.65;;;23.50;99.90;;;;;;5006334;28;20179;-89
2022/09/05 09:20:15;;;;;;;5.85;2.83;;;23.60;99.90;;;;;;5007231;28;20218;-87
2022/09/05 09:22:41;;;;;;;4.20;2.80;;;23.80;99.90;;;;;;5002560;28;20202;-89
2022/09/05 09:25:15;;;;;;;6.18;2.90;;;23.90;99.90;;;;;;5007826;28;20232;-89
2022/09/05 09:28:04;;;;;;;8.35;3.05;;;23.90;99.90;;;;;;4998328;28;20178;-89
2022/09/05 09:30:33;;;;;;;3.97;2.50;;;23.90;99.90;;;;;;4990191;28;20187;-89
2022/09/05 09:33:05;;;;;;;2.90;2.63;;;24.00;99.90;;;;;;4997583;28;20183;-90
2022/09/05 09:35:49;;;;;;;4.25;2.42;;;24.10;99.90;;;;;;4982234;28;20190;-89
2022/09/05 09:38:15;;;;;;;3.70;2.70;;;24.30;99.90;;;;;;5003340;28;20188;-89
2022/09/05 09:40:47;;;;;;;3.72;2.47;;;24.50;99.90;;;;;;5007249;28;20185;-90
2022/09/05 09:43:26;;;;;;;3.55;2.50;;;24.50;99.90;;;;;;4997370;28;20183;-90
2022/09/05 09:46:02;;;;;;;4.50;2.70;;;24.70;99.90;;;;;;5006924;28;20242;-89
2022/09/05 09:48:52;;;;;;;3.25;2.90;;;24.70;99.90;;;;;;5005334;28;20179;-89
2022/09/05 09:51:33;;;;;;;3.85;2.70;;;24.90;99.90;;;;;;4997230;28;20207;-89
2022/09/05 09:54:23;;;;;;;3.33;2.53;;;25.00;99.90;;;;;;5021850;28;20198;-89
2022/09/05 09:57:07;;;;;;;3.45;2.40;;;25.10;99.90;;;;;;5000785;28;20187;-90
2022/09/05 10:00:01;;;;;;;3.70;2.58;;;25.20;99.90;;;;;;4985360;28;20253;-90
2022/09/05 10:03:23;;;;;;;2.65;2.10;;;25.30;99.90;;;;;;5015520;28;20226;-89
2022/09/05 10:06:07;;;;;;;3.10;2.28;;;25.40;99.90;;;;;;4989587;28;20206;-90
2022/09/05 10:08:51;;;;;;;2.38;2.20;;;25.60;99.90;;;;;;5005368;28;20621;-90
2022/09/05 10:11:55;;;;;;;2.70;2.50;;;25.70;99.90;;;;;;5008869;28;20234;-90
2022/09/05 10:14:58;;;;;;;2.35;2.15;;;26.00;99.90;;;;;;5019725;28;20191;-90
2022/09/05 10:17:45;;;;;;;3.10;2.15;;;26.00;99.90;;;;;;4999703;28;20262;-90
2022/09/05 10:20:24;;;;;;;3.63;2.28;;;26.20;99.90;;;;;;5002126;28;20188;-90
2022/09/05 10:22:56;;;;;;;3.00;2.22;;;26.20;99.90;;;;;;5020360;28;20199;-90
2022/09/05 10:25:28;;;;;;;2.70;2.50;;;26.40;99.90;;;;;;5004353;28;20206;-90
2022/09/05 10:28:32;;;;;;;3.40;2.30;;;26.60;99.90;;;;;;5020339;28;20194;-90
2022/09/05 10:31:16;;;;;;;2.63;2.42;;;26.50;99.90;;;;;;4962275;28;20214;-90
2022/09/05 10:34:09;;;;;;;2.63;2.22;;;26.70;99.90;;;;;;5005795;28;20182;-90
2022/09/05 10:36:39;;;;;;;3.15;2.53;;;26.80;99.90;;;;;;5009401;28;20194;-90
2022/09/05 10:39:16;;;;;;;3.28;2.45;;;27.00;99.90;;;;;;5011651;28;20182;-84
2022/09/05 10:41:52;;;;;;;2.83;2.35;;;27.20;99.90;;;;;;4997570;28;20421;-90
2022/09/05 10:44:35;;;;;;;2.90;2.58;;;27.30;99.90;;;;;;5003463;28;20202;-90
2022/09/05 10:47:22;;;;;;;2.33;2.13;;;27.30;99.90;;;;;;5008798;28;20208;-90
2022/09/05 10:49:49;;;;;;;4.32;2.47;;;27.50;99.90;;;;;;4998875;28;20179;-90
2022/09/05 10:52:28;;;;;;;3.95;2.40;;;27.60;99.90;;;;;;5002188;28;20203;-90
2022/09/05 10:55:31;;;;;;;3.38;2.63;;;27.70;99.90;;;;;;4997793;28;20179;-90
2022/09/05 10:58:13;;;;;;;2.80;2.50;;;27.90;99.90;;;;;;5013020;28;20226;-89
2022/09/05 11:00:56;;;;;;;3.13;2.83;;;28.00;99.90;;;;;;4992943;28;20242;-89
2022/09/05 11:04:11;;;;;;;3.10;2.72;;;28.10;99.90;;;;;;5004315;28;20175;-89
2022/09/05 11:07:28;;;;;;;2.60;2.40;;;28.10;99.90;;;;;;4980522;28;20215;-89
2022/09/05 11:09:58;;;;;;;3.88;2.35;;;28.00;99.90;;;;;;4971699;28;20187;-89
2022/09/05 11:13:05;;;;;;;2.60;2.40;;;27.90;99.90;;;;;;4939713;28;20213;-89
2022/09/05 11:15:51;;;;;;;2.95;2.10;;;28.00;99.90;;;;;;4959172;28;20187;-89
2022/09/05 11:18:48;;;;;;;2.33;2.17;;;28.10;99.90;;;;;;5003247;28;20202;-79
2022/09/05 11:21:26;;;;;;;3.20;2.53;;;28.30;99.90;;;;;;5028554;28;20214;-90
2022/09/05 11:24:27;;;;;;;2.60;2.40;;;28.40;99.90;;;;;;5008984;28;20205;-91
2022/09/05 11:26:59;;;;;;;3.92;2.45;;;28.60;99.90;;;;;;4967034;28;20202;-90
2022/09/05 11:29:38;;;;;;;2.22;2.05;;;28.70;99.90;;;;;;5009957;28;20249;-90
2022/09/05 11:32:16;;;;;;;2.70;2.50;;;28.80;99.90;;;;;;4997107;28;20199;-90
2022/09/05 11:34:51;;;;;;;2.88;2.10;;;28.80;99.90;;;;;;4991305;28;20302;-90
2022/09/05 11:37:27;;;;;;;2.88;2.42;;;28.80;99.90;;;;;;5012867;28;20183;-89
2022/09/05 11:39:53;;;;;;;2.20;2.00;;;28.90;99.90;;;;;;5013607;28;20182;-90
2022/09/05 11:42:31;;;;;;;2.80;2.40;;;28.90;99.90;;;;;;5004521;28;20208;-91
2022/09/05 11:45:14;;;;;;;2.47;2.28;;;29.10;99.90;;;;;;4988618;28;20644;-90
2022/09/05 11:47:55;;;;;;;2.42;2.22;;;29.30;99.90;;;;;;4999160;28;20190;-90
2022/09/05 11:50:33;;;;;;;3.15;2.30;;;29.50;99.90;;;;;;4999867;28;20262;-90
2022/09/05 11:53:24;;;;;;;4.03;2.40;;;29.80;99.90;;;;;;5001458;28;20179;-90
2022/09/05 11:55:58;;;;;;;3.28;2.40;;;29.80;99.90;;;;;;4996337;28;20179;-90
2022/09/05 11:59:03;;;;;;;3.45;2.40;;;29.90;99.90;;;;;;4998301;28;20172;-89
2022/09/05 12:01:42;;;;;;;3.55;2.10;;;30.10;99.90;;;;;;4968169;28;20218;-90
2022/09/05 12:04:27;;;;;;;4.00;2.30;;;30.20;99.90;;;;;;4999975;28;20182;-90
2022/09/05 12:07:04;;;;;;;2.20;2.05;;;30.30;99.90;;;;;;4997992;28;20218;-90
2022/09/05 12:09:51;;;;;;;2.33;2.13;;;30.50;99.90;;;;;;4978974;28;20171;-90
2022/09/05 12:12:46;;;;;;;3.00;2.50;;;30.60;99.90;;;;;;4976856;28;20204;-91
2022/09/05 12:15:32;;;;;;;2.75;2.28;;;30.60;99.90;;;;;;4992174;28;20190;-91
2022/09/05 12:18:27;;;;;;;2.47;1.92;;;30.40;99.70;;;;;;5007528;28;20229;-91
2022/09/05 12:21:19;;;;;;;2.38;1.90;;;30.60;99.90;;;;;;5015345;28;20250;-91
2022/09/05 12:24:16;;;;;;;2.08;1.85;;;30.70;99.20;;;;;;4967203;28;20183;-91
2022/09/05 12:27:03;;;;;;;2.35;2.20;;;30.80;97.40;;;;;;4995435;28;20182;-91
2022/09/05 12:29:35;;;;;;;3.45;2.20;;;30.80;97.20;;;;;;4995498;28;20234;-89
2022/09/05 12:32:06;;;;;;;2.30;2.00;;;30.60;97.00;;;;;;5009208;28;20202;-89
2022/09/05 12:34:50;;;;;;;3.25;1.92;;;30.40;96.80;;;;;;5014463;28;20237;-89
2022/09/05 12:37:30;;;;;;;2.20;2.00;;;30.30;97.80;;;;;;5014917;28;20182;-89
2022/09/05 12:40:08;;;;;;;2.13;1.85;;;30.00;96.70;;;;;;5014771;28;20189;-89
2022/09/05 12:42:54;;;;;;;2.05;1.95;;;30.20;97.90;;;;;;5014701;28;20224;-89
2022/09/05 12:45:28;;;;;;;2.03;1.92;;;30.30;97.30;;;;;;5014734;28;20645;-90
2022/09/05 12:48:10;;;;;;;3.38;1.70;;;30.30;96.90;;;;;;5005887;28;20182;-91
2022/09/05 12:50:42;;;;;;;2.35;1.85;;;30.40;97.10;;;;;;4995068;28;20180;-90
2022/09/05 12:53:17;;;;;;;2.10;1.90;;;30.40;96.90;;;;;;4994845;28;20185;-90
2022/09/05 12:56:03;;;;;;;4.78;2.08;;;30.50;96.60;;;;;;4995026;28;20183;-90
2022/09/05 12:58:36;;;;;;;2.05;1.95;;;30.40;96.10;;;;;;4995220;28;20205;-90
2022/09/05 13:01:17;;;;;;;2.45;1.60;;;30.30;95.10;;;;;;4993829;28;20219;-90
2022/09/05 13:04:20;;;;;;;2.03;1.88;;;30.50;97.20;;;;;;4994939;28;20163;-90
2022/09/05 13:07:23;;;;;;;3.42;2.40;;;30.70;96.70;;;;;;4986438;28;20187;-90
2022/09/05 13:10:14;;;;;;;2.72;2.30;;;30.80;97.80;;;;;;4919283;29;20240;-90
2022/09/05 13:12:55;;;;;;;2.60;2.20;;;30.70;98.00;;;;;;5009373;28;20239;-90
2022/09/05 13:15:38;;;;;;;2.42;2.03;;;31.00;98.30;;;;;;4994659;28;20183;-90
2022/09/05 13:18:12;;;;;;;3.08;2.15;;;31.10;97.00;;;;;;4994241;28;20198;-91
2022/09/05 13:20:50;;;;;;;3.70;2.30;;;31.30;96.20;;;;;;4994411;28;20191;-90
2022/09/05 13:23:37;;;;;;;3.95;2.33;;;31.60;96.60;;;;;;4994706;28;20278;-90
2022/09/05 13:26:22;;;;;;;2.88;2.25;;;31.40;96.50;;;;;;4994547;28;20214;-91
2022/09/05 13:29:03;;;;;;;5.70;2.40;;;31.50;96.80;;;;;;4994503;28;20205;-90
2022/09/05 13:31:41;;;;;;;3.72;2.30;;;31.70;97.00;;;;;;4994536;28;20199;-91
2022/09/05 13:34:24;;;;;;;2.40;2.20;;;31.80;95.60;;;;;;4994203;28;20179;-90
2022/09/05 13:37:06;;;;;;;3.25;2.10;;;32.10;95.80;;;;;;4994681;28;20237;-90
2022/09/05 13:39:55;;;;;;;2.50;2.30;;;32.40;95.00;;;;;;4994063;28;20290;-90
2022/09/05 13:42:25;;;;;;;2.15;1.95;;;32.40;93.90;;;;;;4994133;28;20254;-90
2022/09/05 13:44:57;;;;;;;2.20;2.00;;;32.60;94.60;;;;;;4994342;28;20187;-90
2022/09/05 13:47:57;;;;;;;3.03;2.00;;;32.60;94.00;;;;;;4998076;28;20190;-90
2022/09/05 13:50:29;;;;;;;2.20;2.00;;;32.80;93.30;;;;;;5014042;28;20182;-90
2022/09/05 13:53:10;;;;;;;2.17;1.95;;;33.00;92.50;;;;;;5029969;28;20210;-90
2022/09/05 13:55:38;;;;;;;3.45;2.22;;;32.60;92.50;;;;;;5013290;28;20202;-90
2022/09/05 13:58:33;;;;;;;2.28;2.10;;;32.60;92.80;;;;;;5013418;28;20193;-91
2022/09/05 14:01:52;;;;;;;1.95;1.70;;;32.80;92.10;;;;;;4993853;28;20251;-90
2022/09/05 14:04:33;;;;;;;2.78;2.13;;;32.40;90.90;;;;;;4959309;28;20191;-91
2022/09/05 14:07:24;;;;;;;3.85;1.92;;;32.00;89.20;;;;;;4993858;28;20175;-90
2022/09/05 14:10:09;;;;;;;3.03;1.92;;;31.60;91.70;;;;;;4993957;28;20271;-91
2022/09/05 14:12:41;;;;;;;2.20;2.10;;;31.30;91.90;;;;;;4993655;28;20218;-90